createdAt,value
2022-10-12T21:05:36.962Z,41.08
2022-10-12T21:08:04.289Z,44.35
2022-10-12T21:10:31.295Z,43.75
2022-10-12T21:12:58.329Z,46.78
2022-10-12T21:15:25.269Z,53.33
2022-10-12T21:17:52.130Z,48.28
2022-10-12T21:20:19.014Z,49.17
2022-10-12T21:22:46.143Z,52.63
2022-10-12T21:25:13.172Z,53.58
2022-10-12T21:27:40.154Z,56.13
2022-10-12T21:30:07.529Z,54.72
2022-10-12T21:32:34.561Z,55.35
2022-10-12T21:35:01.704Z,61.05
2022-10-12T21:37:29.597Z,58.10
2022-10-12T21:39:56.534Z,55.78
2022-10-12T21:42:23.459Z,52.65
2022-10-12T21:44:50.474Z,55.00
2022-10-12T21:47:18.345Z,52.05
2022-10-12T21:49:45.945Z,58.25
2022-10-12T21:52:12.865Z,55.22
2022-10-12T21:54:40.757Z,60.90
2022-10-12T21:57:07.688Z,58.38
2022-10-12T21:59:34.575Z,59.92
2022-10-12T22:02:01.502Z,55.88
2022-10-12T22:04:28.674Z,56.95
2022-10-12T22:07:00.313Z,60.35
2022-10-12T22:09:27.498Z,61.13
2022-10-12T22:11:54.584Z,63.28
2022-10-12T22:14:21.464Z,66.53
2022-10-12T22:16:48.553Z,71.63
2022-10-12T22:19:20.124Z,69.55
2022-10-12T22:21:49.069Z,65.60
2022-10-12T22:24:16.567Z,71.03
2022-10-12T22:26:43.517Z,68.28
2022-10-12T22:29:11.016Z,76.78
2022-10-12T22:31:40.824Z,85.80
2022-10-12T22:34:09.864Z,77.07
2022-10-12T22:36:36.851Z,83.80
2022-10-12T22:39:05.707Z,77.80
2022-10-12T22:41:32.562Z,72.57
2022-10-12T22:43:59.473Z,77.30
2022-10-12T22:46:26.692Z,73.55
2022-10-12T22:48:54.352Z,78.95
2022-10-12T22:51:33.528Z,76.70
2022-10-12T22:54:01.599Z,78.65
2022-10-12T22:56:29.418Z,72.28
2022-10-12T22:58:58.860Z,75.82
2022-10-12T23:01:26.841Z,77.18
2022-10-12T23:03:54.823Z,68.55
2022-10-12T23:06:22.575Z,69.97
2022-10-12T23:08:49.696Z,68.75
2022-10-12T23:11:19.643Z,66.57
2022-10-12T23:13:48.138Z,71.93
2022-10-12T23:16:20.892Z,75.68
2022-10-12T23:18:48.173Z,71.53
2022-10-12T23:21:17.703Z,74.88
2022-10-12T23:23:45.916Z,67.53
2022-10-12T23:26:24.054Z,66.45
2022-10-12T23:28:51.848Z,70.15
2022-10-12T23:31:21.246Z,72.82
2022-10-12T23:33:59.273Z,71.03
2022-10-12T23:36:26.822Z,69.13
2022-10-12T23:38:53.856Z,72.53
2022-10-12T23:41:20.817Z,75.93
2022-10-12T23:43:47.923Z,75.20
2022-10-12T23:46:14.865Z,77.15
2022-10-12T23:48:41.911Z,72.28
2022-10-12T23:51:09.737Z,67.47
2022-10-12T23:53:37.770Z,75.38
2022-10-12T23:56:05.798Z,67.45
2022-10-12T23:58:32.822Z,71.00
